Time;durP1;ratioP1;P1;durP2;ratioP2;P2;SDS_P1;SDS_P2;PMS_P1;PMS_P2;Temp;Humidity;BMP_temperature;BMP_pressure;BME280_temperature;BME280_humidity;BME280_pressure;Samples;Min_cycle;Max_cycle;Signal;HPM_P1;HPM_P2
2023/05/21 00:00:10;;;;;;;;;;;;;;;21.17;25.68;101973.50;6185208;23;19908;-55
2023/05/21 00:02:36;;;;;;;;;;;;;;;21.13;26.47;101975.00;6184981;23;19908;-52
2023/05/21 00:05:01;;;;;;;;;;;;;;;21.07;26.18;101968.56;6184941;23;19919;-54
2023/05/21 00:07:27;;;;;;;;;;;;;;;21.01;26.88;101976.84;6185122;23;19957;-56
2023/05/21 00:09:52;;;;;;;;;;;;;;;20.94;26.44;101981.53;6185198;23;19908;-55
2023/05/21 00:12:18;;;;;;;;;;;;;;;20.92;26.28;101968.09;6184959;23;19951;-54
2023/05/21 00:14:43;;;;;;;;;;;;;;;20.91;26.68;101974.59;6185913;23;19951;-57
2023/05/21 00:17:08;;;;;;;;;;;;;;;20.93;26.28;101968.91;6184903;23;19909;-56
2023/05/21 00:19:34;;;;;;;;;;;;;;;20.86;26.55;101972.56;6158547;23;19942;-56
2023/05/21 00:22:02;;;;;;;;;;;;;;;20.84;26.20;101971.97;6184796;23;19908;-57
2023/05/21 00:24:28;;;;;;;;;;;;;;;20.86;26.39;101967.09;6184566;23;19927;-55
2023/05/21 00:26:53;;;;;;;;;;;;;;;20.84;26.68;101968.41;6185064;23;19913;-57
2023/05/21 00:29:18;;;;;;;;;;;;;;;20.85;26.24;101970.88;6184614;23;19908;-54
2023/05/21 00:31:43;;;;;;;;;;;;;;;20.76;26.53;101964.03;6158551;23;19962;-50
2023/05/21 00:34:09;;;;;;;;;;;;;;;20.68;26.29;101967.91;6184672;23;19995;-56
2023/05/21 00:36:34;;;;;;;;;;;;;;;20.68;26.46;101961.59;6185610;23;19916;-55
2023/05/21 00:39:01;;;;;;;;;;;;;;;20.62;26.68;101966.06;6185411;23;19908;-54
2023/05/21 00:41:28;;;;;;;;;;;;;;;20.56;27.08;101960.63;6186433;23;20324;-57
2023/05/21 00:43:54;;;;;;;;;;;;;;;20.53;27.09;101967.38;6186575;23;19939;-57
2023/05/21 00:46:21;;;;;;;;;;;;;;;20.49;26.95;101963.44;6186412;23;19908;-56
2023/05/21 00:48:46;;;;;;;;;;;;;;;20.45;27.55;101964.94;6186836;23;19919;-57
2023/05/21 00:51:15;;;;;;;;;;;;;;;20.36;27.39;101964.38;6160358;23;20019;-56
2023/05/21 00:53:41;;;;;;;;;;;;;;;20.36;26.94;101967.09;6186851;23;19955;-52
2023/05/21 00:56:06;;;;;;;;;;;;;;;20.30;27.46;101957.09;6160124;23;19912;-57
2023/05/21 00:58:33;;;;;;;;;;;;;;;20.24;28.13;101958.78;6186403;23;19919;-55
2023/05/21 01:01:02;;;;;;;;;;;;;;;20.23;27.80;101956.31;6186697;23;19913;-56
2023/05/21 01:03:29;;;;;;;;;;;;;;;20.23;26.75;101959.03;6161238;23;20347;-51
2023/05/21 01:05:58;;;;;;;;;;;;;;;20.15;27.88;101962.88;6186120;23;19919;-56
2023/05/21 01:08:24;;;;;;;;;;;;;;;20.16;27.64;101958.25;6186448;23;19955;-56
2023/05/21 01:10:49;;;;;;;;;;;;;;;20.12;27.47;101957.84;6186099;23;20309;-56
2023/05/21 01:13:16;;;;;;;;;;;;;;;20.09;27.07;101953.66;6186456;23;19940;-53
2023/05/21 01:15:43;;;;;;;;;;;;;;;20.05;27.90;101959.78;6186245;23;19909;-56
2023/05/21 01:18:08;;;;;;;;;;;;;;;20.00;27.77;101952.28;6185803;23;19908;-50
2023/05/21 01:20:33;;;;;;;;;;;;;;;19.95;27.81;101963.00;6159546;23;19916;-51
2023/05/21 01:22:59;;;;;;;;;;;;;;;19.92;27.89;101964.25;6185916;23;20245;-52
2023/05/21 01:25:24;;;;;;;;;;;;;;;19.94;28.10;101971.38;6159465;23;19912;-52
2023/05/21 01:27:50;;;;;;;;;;;;;;;19.93;28.05;101965.09;6185711;23;19909;-51
2023/05/21 01:30:17;;;;;;;;;;;;;;;19.94;27.52;101974.94;6185849;23;20210;-56
2023/05/21 01:32:57;;;;;;;;;;;;;;;19.96;26.98;101970.09;6185968;23;19912;-52
2023/05/21 01:35:28;;;;;;;;;;;;;;;19.92;27.54;101971.59;6185623;23;19908;-52
2023/05/21 01:38:31;;;;;;;;;;;;;;;19.89;27.58;101970.16;6185020;23;19908;-49
2023/05/21 01:41:02;;;;;;;;;;;;;;;19.74;28.05;101969.59;6036983;23;20331;-54
2023/05/21 01:43:28;;;;;;;;;;;;;;;19.60;27.50;101966.09;6013431;23;19942;-56
2023/05/21 01:45:54;;;;;;;;;;;;;;;19.54;28.05;101975.97;6110493;23;20222;-50
2023/05/21 01:48:21;;;;;;;;;;;;;;;19.49;28.30;101969.50;6186058;23;20258;-56
2023/05/21 01:50:46;;;;;;;;;;;;;;;19.45;27.93;101968.25;6159847;23;19999;-56
2023/05/21 01:53:11;;;;;;;;;;;;;;;19.38;28.46;101971.00;6159535;23;20000;-55
2023/05/21 01:55:40;;;;;;;;;;;;;;;19.33;28.40;101966.22;6185824;23;20258;-55
2023/05/21 01:58:06;;;;;;;;;;;;;;;19.36;28.54;101967.66;6185614;23;19909;-57
2023/05/21 02:00:31;;;;;;;;;;;;;;;19.41;28.18;101962.41;6185585;23;19916;-53
2023/05/21 02:02:57;;;;;;;;;;;;;;;19.34;28.63;101959.69;6185678;23;19909;-52
2023/05/21 02:05:22;;;;;;;;;;;;;;;19.27;28.28;101961.59;6185327;23;19952;-55
2023/05/21 02:07:50;;;;;;;;;;;;;;;19.22;28.59;101960.56;6185178;23;20393;-56
2023/05/21 02:10:16;;;;;;;;;;;;;;;19.18;28.79;101960.16;6185611;23;19908;-56
2023/05/21 02:12:42;;;;;;;;;;;;;;;19.14;28.90;101962.47;6185973;23;20226;-52
2023/05/21 02:15:07;;;;;;;;;;;;;;;19.14;28.55;101954.31;6185629;23;19916;-52
2023/05/21 02:17:32;;;;;;;;;;;;;;;19.10;28.93;101953.06;6186071;23;19914;-56
2023/05/21 02:20:06;;;;;;;;;;;;;;;19.14;28.84;101954.31;6186079;23;19915;-52
2023/05/21 02:22:31;;;;;;;;;;;;;;;19.09;28.96;101951.41;6159114;23;19912;-52
2023/05/21 02:24:58;;;;;;;;;;;;;;;19.05;28.83;101949.31;6185406;23;19913;-53
2023/05/21 02:27:23;;;;;;;;;;;;;;;19.08;29.13;101944.28;6185449;23;19908;-52
2023/05/21 02:29:48;;;;;;;;;;;;;;;19.04;28.52;101953.94;6185518;23;20277;-55
2023/05/21 02:32:13;;;;;;;;;;;;;;;19.04;29.13;101962.09;6185754;23;19909;-56
2023/05/21 02:34:41;;;;;;;;;;;;;;;19.00;28.98;101958.13;6185334;23;19912;-55
2023/05/21 02:37:08;;;;;;;;;;;;;;;19.04;28.45;101953.94;6185296;23;19967;-52
2023/05/21 02:39:33;;;;;;;;;;;;;;;19.02;28.57;101961.47;6185301;23;19916;-53
2023/05/21 02:41:59;;;;;;;;;;;;;;;19.01;28.94;101967.97;6185779;23;19992;-56
2023/05/21 02:44:24;;;;;;;;;;;;;;;18.90;29.65;101964.00;6185466;23;20000;-56
2023/05/21 02:46:49;;;;;;;;;;;;;;;18.79;29.24;101966.50;6185558;23;19978;-56
2023/05/21 02:49:15;;;;;;;;;;;;;;;18.74;29.07;101964.44;6159285;23;19931;-55
2023/05/21 02:51:40;;;;;;;;;;;;;;;18.64;29.55;101967.56;6185303;23;20306;-56
2023/05/21 02:54:05;;;;;;;;;;;;;;;18.60;29.43;101965.50;6158991;23;19920;-55
2023/05/21 02:56:31;;;;;;;;;;;;;;;18.52;29.25;101958.38;6184979;23;19915;-55
2023/05/21 02:58:56;;;;;;;;;;;;;;;18.50;29.46;101966.75;6184967;23;19912;-54
2023/05/21 03:01:21;;;;;;;;;;;;;;;18.44;30.07;101964.00;6185183;23;19914;-56
2023/05/21 03:03:46;;;;;;;;;;;;;;;18.43;29.15;101962.34;6185375;23;19916;-55
2023/05/21 03:06:12;;;;;;;;;;;;;;;18.41;29.57;101961.72;6185503;23;19974;-56
2023/05/21 03:08:37;;;;;;;;;;;;;;;18.40;29.79;101960.88;6185147;23;20332;-52
2023/05/21 03:11:03;;;;;;;;;;;;;;;18.38;29.99;101957.53;6158691;23;19958;-56
2023/05/21 03:13:28;;;;;;;;;;;;;;;18.35;29.94;101964.22;6185142;23;19931;-56
2023/05/21 03:15:55;;;;;;;;;;;;;;;18.37;29.73;101966.75;6184937;23;20278;-56
2023/05/21 03:18:21;;;;;;;;;;;;;;;18.36;29.69;101965.06;6185100;23;19923;-54
2023/05/21 03:20:46;;;;;;;;;;;;;;;18.34;29.17;101959.00;6185111;23;20328;-55
2023/05/21 03:23:12;;;;;;;;;;;;;;;18.40;29.41;101958.16;6185029;23;19909;-55
2023/05/21 03:25:38;;;;;;;;;;;;;;;18.49;29.42;101964.22;6184546;23;19912;-55
2023/05/21 03:28:03;;;;;;;;;;;;;;;18.56;29.43;101959.63;6184717;23;20313;-56
2023/05/21 03:30:28;;;;;;;;;;;;;;;18.52;29.37;101961.09;6158532;23;19915;-54
2023/05/21 03:32:55;;;;;;;;;;;;;;;18.47;29.78;101955.44;6185015;23;19915;-51
2023/05/21 03:35:20;;;;;;;;;;;;;;;18.54;29.14;101959.84;6184609;23;19915;-54
2023/05/21 03:37:45;;;;;;;;;;;;;;;18.65;29.05;101957.53;6184558;23;20214;-56
2023/05/21 03:40:11;;;;;;;;;;;;;;;18.66;28.95;101956.47;6185040;23;20240;-53
2023/05/21 03:42:36;;;;;;;;;;;;;;;18.66;28.63;101949.13;6185019;23;19913;-55
2023/05/21 03:45:02;;;;;;;;;;;;;;;18.69;29.06;101945.19;6184907;23;20266;-54
2023/05/21 03:47:27;;;;;;;;;;;;;;;18.66;29.24;101943.69;6184847;23;19909;-55
2023/05/21 03:49:52;;;;;;;;;;;;;;;18.72;28.80;101955.63;6184837;23;19943;-56
2023/05/21 03:52:18;;;;;;;;;;;;;;;18.74;29.60;101945.38;6185002;23;20252;-55
2023/05/21 03:54:43;;;;;;;;;;;;;;;18.72;29.25;101947.44;6158122;23;19991;-54
2023/05/21 03:57:08;;;;;;;;;;;;;;;18.71;29.09;101943.91;6184787;23;19908;-57
2023/05/21 03:59:34;;;;;;;;;;;;;;;18.71;29.62;101946.63;6184987;23;19932;-54
2023/05/21 04:01:59;;;;;;;;;;;;;;;18.74;29.37;101948.94;6158475;23;20371;-54
2023/05/21 04:04:24;;;;;;;;;;;;;;;18.72;29.23;101947.44;6184847;23;19966;-57
2023/05/21 04:06:50;;;;;;;;;;;;;;;18.74;28.89;101950.81;6184415;23;19908;-55
2023/05/21 04:09:15;;;;;;;;;;;;;;;18.77;28.79;101947.66;6158663;23;19915;-54
2023/05/21 04:11:40;;;;;;;;;;;;;;;18.79;28.83;101951.00;6158148;23;20185;-55
2023/05/21 04:14:06;;;;;;;;;;;;;;;18.76;29.15;101954.16;6184354;23;19927;-56
2023/05/21 04:16:33;;;;;;;;;;;;;;;18.79;29.35;101955.63;6158017;23;19954;-54
2023/05/21 04:18:58;;;;;;;;;;;;;;;18.84;28.76;101956.69;6184419;23;19966;-57
2023/05/21 04:21:24;;;;;;;;;;;;;;;18.81;29.14;101961.72;6184530;23;20023;-56
2023/05/21 04:23:49;;;;;;;;;;;;;;;18.84;28.74;101956.69;6184683;23;19909;-55
2023/05/21 04:26:15;;;;;;;;;;;;;;;18.88;29.05;101957.94;6184214;23;19916;-52
2023/05/21 04:28:41;;;;;;;;;;;;;;;18.88;29.18;101957.09;6184512;23;19912;-54
2023/05/21 04:31:08;;;;;;;;;;;;;;;18.95;28.47;101953.31;6184827;23;20411;-54
2023/05/21 04:33:34;;;;;;;;;;;;;;;18.90;29.78;101961.28;6184495;23;19908;-57
2023/05/21 04:36:00;;;;;;;;;;;;;;;18.90;29.04;101961.28;6184544;23;19916;-56
2023/05/21 04:38:25;;;;;;;;;;;;;;;18.91;29.75;101952.06;6183954;23;20321;-53
2023/05/21 04:40:50;;;;;;;;;;;;;;;18.94;29.55;101953.53;6184930;23;20302;-55
2023/05/21 04:43:16;;;;;;;;;;;;;;;18.91;29.66;101962.13;6184392;23;20020;-51
2023/05/21 04:45:42;;;;;;;;;;;;;;;18.88;29.38;101963.38;6184228;23;19933;-54
2023/05/21 04:48:07;;;;;;;;;;;;;;;18.93;28.98;101962.75;6184453;23;19991;-53
2023/05/21 04:50:33;;;;;;;;;;;;;;;18.94;28.88;101951.66;6184173;23;19975;-54
2023/05/21 04:52:58;;;;;;;;;;;;;;;19.01;29.00;101957.06;6184602;23;19909;-54
2023/05/21 04:55:24;;;;;;;;;;;;;;;19.02;29.29;101963.34;6183988;23;20339;-55
2023/05/21 04:57:50;;;;;;;;;;;;;;;19.04;29.39;101958.56;6184204;23;19924;-53
2023/05/21 05:00:16;;;;;;;;;;;;;;;19.18;28.55;101962.06;6184199;23;19931;-55
2023/05/21 05:02:41;;;;;;;;;;;;;;;19.25;28.34;101963.72;6184485;23;19908;-53
2023/05/21 05:05:07;;;;;;;;;;;;;;;19.24;28.68;101959.31;6184058;23;19934;-55
2023/05/21 05:07:32;;;;;;;;;;;;;;;19.21;29.18;101957.03;6157794;23;20293;-54
2023/05/21 05:09:57;;;;;;;;;;;;;;;19.24;29.16;101963.91;6184861;23;19916;-53
2023/05/21 05:12:23;;;;;;;;;;;;;;;19.24;28.67;101951.16;6184589;23;19915;-55
2023/05/21 05:14:48;;;;;;;;;;;;;;;19.28;28.56;101957.84;6184611;23;19908;-54
2023/05/21 05:17:13;;;;;;;;;;;;;;;19.37;28.58;101953.00;6184436;23;20339;-54
2023/05/21 05:19:39;;;;;;;;;;;;;;;19.44;28.50;101953.78;6184320;23;19913;-56
2023/05/21 05:22:04;;;;;;;;;;;;;;;19.50;28.71;101952.06;6185014;23;19999;-56
2023/05/21 05:24:29;;;;;;;;;;;;;;;19.47;28.26;101955.25;6186226;23;19940;-56
2023/05/21 05:26:54;;;;;;;;;;;;;;;19.54;28.32;101954.16;6186079;23;20253;-55
2023/05/21 05:29:20;;;;;;;;;;;;;;;19.60;28.20;101954.34;6186004;23;19920;-56
2023/05/21 05:31:45;;;;;;;;;;;;;;;19.58;28.36;101949.13;6159659;23;19999;-56
2023/05/21 05:34:10;;;;;;;;;;;;;;;19.59;27.97;101948.03;6185878;23;19908;-55
2023/05/21 05:36:36;;;;;;;;;;;;;;;19.67;28.22;101952.44;6185980;23;19927;-54
2023/05/21 05:39:01;;;;;;;;;;;;;;;19.75;28.34;101948.66;6185227;23;19909;-56
2023/05/21 05:41:26;;;;;;;;;;;;;;;19.80;28.32;101955.13;6186113;23;19912;-49
2023/05/21 05:43:52;;;;;;;;;;;;;;;19.88;28.00;101951.28;6186013;23;19954;-56
2023/05/21 05:46:17;;;;;;;;;;;;;;;19.86;27.73;101954.22;6185432;23;20290;-56
2023/05/21 05:48:42;;;;;;;;;;;;;;;19.86;27.80;101950.69;6185112;23;20011;-53
2023/05/21 05:51:08;;;;;;;;;;;;;;;19.88;27.94;101952.13;6185346;23;19909;-56
2023/05/21 05:53:33;;;;;;;;;;;;;;;19.90;27.80;101954.63;6185537;23;19912;-53
2023/05/21 05:55:58;;;;;;;;;;;;;;;19.91;27.59;101951.69;6185735;23;19987;-57
2023/05/21 05:58:24;;;;;;;;;;;;;;;19.99;27.53;101947.84;6185411;23;20277;-54
2023/05/21 06:00:49;;;;;;;;;;;;;;;20.07;27.59;101946.75;6185540;23;19930;-56
2023/05/21 06:03:15;;;;;;;;;;;;;;;20.14;27.57;101947.53;6185835;23;19908;-57
2023/05/21 06:05:40;;;;;;;;;;;;;;;20.17;27.51;101947.13;6185898;23;19999;-53
2023/05/21 06:08:05;;;;;;;;;;;;;;;20.20;27.62;101941.19;6185828;23;20007;-57
2023/05/21 06:10:31;;;;;;;;;;;;;;;20.22;27.26;101949.97;6185516;23;19912;-56
2023/05/21 06:12:56;;;;;;;;;;;;;;;20.26;27.38;101943.06;6185693;23;19912;-56
2023/05/21 06:15:21;;;;;;;;;;;;;;;20.34;27.36;101949.25;6185974;23;19982;-54
2023/05/21 06:17:47;;;;;;;;;;;;;;;20.34;27.53;101944.66;6159273;23;20233;-57
2023/05/21 06:20:12;;;;;;;;;;;;;;;20.41;27.32;101944.59;6185654;23;20420;-56
2023/05/21 06:22:37;;;;;;;;;;;;;;;20.43;27.49;101951.50;6185527;23;19912;-56
2023/05/21 06:25:03;;;;;;;;;;;;;;;20.51;27.06;101950.41;6185304;23;19913;-57
2023/05/21 06:27:29;;;;;;;;;;;;;;;20.56;26.85;101946.97;6185916;23;19916;-55
2023/05/21 06:29:54;;;;;;;;;;;;;;;20.60;26.93;101953.69;6185415;23;19971;-52
2023/05/21 06:32:20;;;;;;;;;;;;;;;20.62;26.82;101955.16;6185236;23;19954;-54
2023/05/21 06:34:45;;;;;;;;;;;;;;;20.70;26.65;101956.75;6185364;23;19957;-56
2023/05/21 06:37:10;;;;;;;;;;;;;;;20.69;26.58;101958.66;6184273;23;20054;-53
2023/05/21 06:39:36;;;;;;;;;;;;;;;20.76;26.42;101957.75;6185686;23;19919;-55
2023/05/21 06:42:01;;;;;;;;;;;;;;;20.82;26.67;101960.44;6185780;23;19915;-52
2023/05/21 06:44:26;;;;;;;;;;;;;;;20.83;26.78;101953.06;6185319;23;19916;-55
2023/05/21 06:46:52;;;;;;;;;;;;;;;20.88;26.90;101953.22;6185433;23;19987;-55
2023/05/21 06:49:17;;;;;;;;;;;;;;;20.76;27.29;101957.75;6185616;23;19991;-54
2023/05/21 06:51:42;;;;;;;;;;;;;;;20.74;26.85;101957.13;6159050;23;19912;-55
2023/05/21 06:54:07;;;;;;;;;;;;;;;20.75;26.78;101951.47;6185468;23;19908;-53
2023/05/21 06:56:33;;;;;;;;;;;;;;;21.01;26.35;101950.34;6185331;23;19919;-54
2023/05/21 06:58:58;;;;;;;;;;;;;;;21.10;26.16;101956.34;6185542;23;19991;-55
2023/05/21 07:01:23;;;;;;;;;;;;;;;21.19;26.07;101955.00;6186026;23;19937;-55
2023/05/21 07:03:49;;;;;;;;;;;;;;;21.21;26.89;101952.84;6185848;23;19931;-52
2023/05/21 07:06:15;;;;;;;;;;;;;;;21.23;27.40;101952.63;6185772;23;19912;-55
2023/05/21 07:08:40;;;;;;;;;;;;;;;21.25;27.04;101950.50;6185087;23;19961;-55
2023/05/21 07:11:06;;;;;;;;;;;;;;;21.22;26.97;101959.16;6185741;23;19991;-51
2023/05/21 07:13:31;;;;;;;;;;;;;;;21.27;27.36;101951.94;6185681;23;20272;-56
2023/05/21 07:15:56;;;;;;;;;;;;;;;21.47;27.09;101950.91;6185159;23;20384;-57
2023/05/21 07:18:21;;;;;;;;;;;;;;;21.55;27.21;101956.03;6185325;23;19908;-54
2023/05/21 07:20:47;;;;;;;;;;;;;;;21.60;26.06;101952.59;6185607;23;19909;-52
2023/05/21 07:23:12;;;;;;;;;;;;;;;21.72;25.53;101955.41;6185230;23;20377;-57
2023/05/21 07:25:37;;;;;;;;;;;;;;;21.74;25.04;101951.34;6185199;23;20349;-56
2023/05/21 07:28:03;;;;;;;;;;;;;;;21.73;25.41;101954.31;6159194;23;20035;-56
2023/05/21 07:30:28;;;;;;;;;;;;;;;21.81;24.74;101954.00;6186165;23;19912;-54
2023/05/21 07:32:53;;;;;;;;;;;;;;;21.77;23.61;101950.91;6185359;23;19915;-56
2023/05/21 07:35:19;;;;;;;;;;;;;;;21.88;24.47;101953.91;6184829;23;20321;-57
2023/05/21 07:37:45;;;;;;;;;;;;;;;21.85;23.17;101955.19;6184113;23;19916;-57
2023/05/21 07:40:10;;;;;;;;;;;;;;;21.85;23.79;101956.03;6184717;23;19908;-54
2023/05/21 07:42:36;;;;;;;;;;;;;;;21.90;23.60;101949.88;6184503;23;19915;-55
2023/05/21 07:45:01;;;;;;;;;;;;;;;21.94;23.12;101956.53;6184854;23;20321;-55
2023/05/21 07:47:26;;;;;;;;;;;;;;;21.91;22.80;101957.00;6185051;23;19939;-56
2023/05/21 07:49:52;;;;;;;;;;;;;;;21.96;22.49;101954.41;6184998;23;19943;-54
2023/05/21 07:52:17;;;;;;;;;;;;;;;22.03;23.14;101957.06;6184788;23;20298;-54
2023/05/21 07:54:42;;;;;;;;;;;;;;;22.06;23.61;101964.78;6185188;23;20349;-56
2023/05/21 07:57:07;;;;;;;;;;;;;;;22.12;23.19;101961.13;6185226;23;19908;-54
2023/05/21 07:59:33;;;;;;;;;;;;;;;22.09;23.39;101963.50;6184674;23;19912;-54
2023/05/21 08:01:58;;;;;;;;;;;;;;;22.13;23.27;101962.78;6184937;23;20006;-54
2023/05/21 08:04:23;;;;;;;;;;;;;;;22.27;23.79;101959.84;6184586;23;19963;-54
2023/05/21 08:06:49;;;;;;;;;;;;;;;22.35;23.92;101960.34;6184722;23;20234;-55
2023/05/21 08:09:14;;;;;;;;;;;;;;;22.45;23.24;101953.47;6184539;23;19908;-54
2023/05/21 08:11:39;;;;;;;;;;;;;;;22.56;23.36;101956.19;6184341;23;19909;-56
2023/05/21 08:14:05;;;;;;;;;;;;;;;22.57;22.99;101962.53;6184321;23;19915;-57
2023/05/21 08:16:30;;;;;;;;;;;;;;;22.71;23.09;101960.38;6184519;23;19908;-63
2023/05/21 08:18:55;;;;;;;;;;;;;;;22.71;22.65;101961.19;6158234;23;19923;-63
2023/05/21 08:21:21;;;;;;;;;;;;;;;22.78;22.09;101959.19;6184589;23;19914;-63
2023/05/21 08:23:46;;;;;;;;;;;;;;;22.76;20.98;101963.22;6184218;23;19983;-63
2023/05/21 08:26:15;;;;;;;;;;;;;;;22.83;19.88;101960.38;6184479;23;19912;-63
2023/05/21 08:28:40;;;;;;;;;;;;;;;22.90;19.49;101961.91;6184774;23;20453;-63
2023/05/21 08:31:05;;;;;;;;;;;;;;;22.97;18.73;101959.91;6184477;23;19908;-62
2023/05/21 08:33:30;;;;;;;;;;;;;;;23.04;20.25;101958.97;6184537;23;19915;-62
2023/05/21 08:35:56;;;;;;;;;;;;;;;23.08;19.06;101958.22;6184454;23;19995;-62
2023/05/21 08:38:21;;;;;;;;;;;;;;;23.17;18.74;101956.78;6183746;23;20393;-62
2023/05/21 08:40:48;;;;;;;;;;;;;;;23.22;18.62;101963.47;6185062;23;19912;-62
2023/05/21 08:43:15;;;;;;;;;;;;;;;23.30;18.43;101955.66;6184842;23;19982;-67
2023/05/21 08:45:47;;;;;;;;;;;;;;;23.35;18.44;101958.53;6184558;23;19913;-64
2023/05/21 08:48:15;;;;;;;;;;;;;;;23.46;19.03;101958.72;6184805;23;19924;-62
2023/05/21 08:50:40;;;;;;;;;;;;;;;23.58;19.58;101962.25;6184510;23;19947;-63
2023/05/21 08:53:05;;;;;;;;;;;;;;;23.69;19.30;101957.81;6184489;23;19908;-68
2023/05/21 08:55:31;;;;;;;;;;;;;;;23.61;17.66;101953.56;6184357;23;19967;-68
2023/05/21 08:57:56;;;;;;;;;;;;;;;23.78;18.78;101954.41;6185789;23;20213;-68
2023/05/21 09:00:23;;;;;;;;;;;;;;;23.92;19.40;101956.88;6186324;23;19915;-69
2023/05/21 09:02:49;;;;;;;;;;;;;;;23.95;19.48;101954.47;6186492;23;20240;-64
2023/05/21 09:05:15;;;;;;;;;;;;;;;24.02;18.15;101961.75;6186261;23;19966;-63
2023/05/21 09:07:46;;;;;;;;;;;;;;;24.10;18.38;101951.16;6159862;23;19959;-63
2023/05/21 09:10:12;;;;;;;;;;;;;;;24.08;17.45;101955.25;6186384;23;19915;-64
2023/05/21 09:12:38;;;;;;;;;;;;;;;24.19;17.77;101950.78;6186425;23;20239;-64
2023/05/21 09:15:04;;;;;;;;;;;;;;;24.25;18.64;101944.28;6186034;23;19908;-61
2023/05/21 09:17:29;;;;;;;;;;;;;;;24.27;17.89;101942.13;6186371;23;19908;-62
2023/05/21 09:20:11;;;;;;;;;;;;;;;24.49;18.27;101939.44;6186140;23;19927;-62
2023/05/21 09:22:43;;;;;;;;;;;;;;;24.51;16.95;101938.09;6186411;23;19970;-62
2023/05/21 09:25:09;;;;;;;;;;;;;;;24.67;17.63;101933.72;6159564;23;19912;-62
2023/05/21 09:27:35;;;;;;;;;;;;;;;24.78;17.96;101929.19;6186175;23;19908;-62
2023/05/21 09:30:01;;;;;;;;;;;;;;;24.87;17.16;101933.19;6185847;23;19944;-62
2023/05/21 09:32:27;;;;;;;;;;;;;;;24.84;16.41;101933.69;6186159;23;19987;-62
2023/05/21 09:34:52;;;;;;;;;;;;;;;24.79;15.37;101936.34;6186478;23;19955;-63
2023/05/21 09:37:18;;;;;;;;;;;;;;;24.94;16.48;101932.97;6185450;23;19939;-61
2023/05/21 09:39:45;;;;;;;;;;;;;;;25.06;15.19;101930.94;6186624;23;19991;-56
2023/05/21 09:42:11;;;;;;;;;;;;;;;25.04;15.77;101924.88;6186979;23;20054;-56
2023/05/21 09:44:36;;;;;;;;;;;;;;;25.17;16.25;101929.16;6186300;23;20000;-54
2023/05/21 09:47:01;;;;;;;;;;;;;;;25.34;15.57;101926.38;6186130;23;19915;-54
2023/05/21 09:49:26;;;;;;;;;;;;;;;25.34;14.65;101920.03;6186457;23;19970;-58
2023/05/21 09:51:58;;;;;;;;;;;;;;;25.40;13.89;101927.25;6186641;23;20011;-59
2023/05/21 09:54:24;;;;;;;;;;;;;;;25.48;13.48;101921.28;6186050;23;20285;-57
2023/05/21 09:56:51;;;;;;;;;;;;;;;25.45;14.34;101921.81;6185866;23;19908;-55
2023/05/21 09:59:16;;;;;;;;;;;;;;;25.56;14.21;101912.59;6186473;23;20229;-58
2023/05/21 10:01:42;;;;;;;;;;;;;;;25.76;15.34;101913.88;6185878;23;19908;-57
2023/05/21 10:04:08;;;;;;;;;;;;;;;25.96;15.29;101913.25;6185837;23;20314;-58
2023/05/21 10:06:40;;;;;;;;;;;;;;;25.88;13.93;101901.59;6185802;23;20027;-57
2023/05/21 10:09:09;;;;;;;;;;;;;;;26.18;14.52;101902.97;6185849;23;19915;-58
2023/05/21 10:11:35;;;;;;;;;;;;;;;26.38;15.12;101901.47;6186026;23;19959;-64
2023/05/21 10:14:04;;;;;;;;;;;;;;;26.59;14.64;101903.25;6185912;23;19940;-58
2023/05/21 10:16:31;;;;;;;;;;;;;;;26.74;14.03;101909.97;6185704;23;19908;-59
2023/05/21 10:18:57;;;;;;;;;;;;;;;26.83;14.47;101906.44;6158862;23;19912;-62
2023/05/21 10:21:23;;;;;;;;;;;;;;;27.06;15.13;101900.75;6185853;23;19962;-59
2023/05/21 10:23:49;;;;;;;;;;;;;;;27.36;15.24;101900.09;6186340;23;19959;-59
2023/05/21 10:26:15;;;;;;;;;;;;;;;27.62;15.07;101900.97;6185725;23;19912;-59
2023/05/21 10:28:42;;;;;;;;;;;;;;;27.72;15.05;101902.91;6186152;23;19915;-59
2023/05/21 10:31:07;;;;;;;;;;;;;;;27.70;14.80;101905.09;6185879;23;19908;-60
2023/05/21 10:33:34;;;;;;;;;;;;;;;27.85;14.57;101901.53;6185886;23;19915;-59
2023/05/21 10:36:00;;;;;;;;;;;;;;;28.07;14.26;101904.88;6185415;23;19916;-59
2023/05/21 10:38:26;;;;;;;;;;;;;;;28.38;14.74;101891.84;6184678;23;19908;-59
2023/05/21 10:40:52;;;;;;;;;;;;;;;28.65;14.27;101898.19;6159405;23;19908;-59
2023/05/21 10:43:30;;;;;;;;;;;;;;;28.89;14.76;101890.91;6185843;23;19912;-58
2023/05/21 10:46:10;;;;;;;;;;;;;;;29.06;14.55;101887.78;6185807;23;19912;-60
2023/05/21 10:48:49;;;;;;;;;;;;;;;29.37;14.57;101875.75;6185467;23;20325;-59
2023/05/21 10:51:21;;;;;;;;;;;;;;;29.41;14.88;101879.59;6185651;23;19908;-59
2023/05/21 10:54:04;;;;;;;;;;;;;;;29.51;15.51;101885.06;6185490;23;20248;-59
2023/05/21 10:56:49;;;;;;;;;;;;;;;29.73;15.11;101879.09;6184997;23;20194;-56
2023/05/21 10:59:44;;;;;;;;;;;;;;;30.07;15.10;101875.50;6185488;23;19909;-58
2023/05/21 11:02:11;;;;;;;;;;;;;;;30.05;14.17;101880.50;6154042;23;19914;-59
2023/05/21 11:04:38;;;;;;;;;;;;;;;30.03;15.10;101877.19;6158798;23;19927;-60
2023/05/21 11:07:04;;;;;;;;;;;;;;;30.33;14.20;101872.50;6185172;23;20356;-68
2023/05/21 11:09:29;;;;;;;;;;;;;;;30.38;14.51;101876.06;6185397;23;19908;-68
2023/05/21 11:11:59;;;;;;;;;;;;;;;30.37;14.17;101871.66;6185190;23;20038;-56
2023/05/21 11:14:27;;;;;;;;;;;;;;;30.38;13.48;101864.97;6184958;23;19915;-58
2023/05/21 11:16:53;;;;;;;;;;;;;;;30.45;13.38;101870.16;6185431;23;20218;-59
2023/05/21 11:19:19;;;;;;;;;;;;;;;30.48;13.42;101873.19;6185133;23;19908;-58
2023/05/21 11:21:53;;;;;;;;;;;;;;;30.69;13.82;101867.41;6185156;23;19991;-58
2023/05/21 11:24:19;;;;;;;;;;;;;;;30.92;14.15;101865.72;6184688;23;19908;-58
2023/05/21 11:26:47;;;;;;;;;;;;;;;31.19;13.38;101864.28;6184949;23;19935;-56
2023/05/21 11:29:13;;;;;;;;;;;;;;;31.22;11.50;101861.72;6184811;23;19964;-57
2023/05/21 11:31:44;;;;;;;;;;;;;;;31.40;13.30;101862.03;6184778;23;19912;-59
2023/05/21 11:34:15;;;;;;;;;;;;;;;31.59;12.25;101856.47;6185063;23;20355;-56
2023/05/21 11:37:01;;;;;;;;;;;;;;;31.68;11.19;101856.63;6185060;23;19920;-58
2023/05/21 11:39:27;;;;;;;;;;;;;;;31.91;11.64;101857.59;6181963;23;19908;-58
2023/05/21 11:41:55;;;;;;;;;;;;;;;32.12;11.35;101858.91;6185157;23;20446;-57
2023/05/21 11:44:37;;;;;;;;;;;;;;;32.24;11.38;101850.06;6185016;23;19927;-56
2023/05/21 11:47:03;;;;;;;;;;;;;;;32.53;12.41;101851.75;6184973;23;19962;-58
2023/05/21 11:49:29;;;;;;;;;;;;;;;32.60;11.84;101853.00;6185120;23;19908;-56
2023/05/21 11:51:55;;;;;;;;;;;;;;;32.84;12.82;101849.19;6185097;23;19963;-58
2023/05/21 11:54:22;;;;;;;;;;;;;;;33.20;13.19;101848.41;6185026;23;20302;-57
2023/05/21 11:56:48;;;;;;;;;;;;;;;33.51;13.20;101842.13;6158581;23;19919;-58
2023/05/21 11:59:14;;;;;;;;;;;;;;;33.79;13.11;101844.78;6185326;23;20309;-58
2023/05/21 12:01:40;;;;;;;;;;;;;;;34.13;13.25;101838.56;6185290;23;19916;-59
2023/05/21 12:04:06;;;;;;;;;;;;;;;34.43;12.75;101838.88;6185236;23;19908;-58
2023/05/21 12:06:33;;;;;;;;;;;;;;;34.57;12.58;101835.97;6184801;23;19974;-57
2023/05/21 12:08:58;;;;;;;;;;;;;;;34.71;12.11;101836.69;6185125;23;19920;-59
2023/05/21 12:11:24;;;;;;;;;;;;;;;34.82;11.77;101843.59;6184713;23;20035;-60
2023/05/21 12:13:49;;;;;;;;;;;;;;;34.98;11.82;101843.97;6184891;23;19936;-58
2023/05/21 12:16:15;;;;;;;;;;;;;;;35.13;11.74;101847.44;6184931;23;19932;-58
2023/05/21 12:18:40;;;;;;;;;;;;;;;35.42;11.86;101843.97;6184877;23;20230;-58
2023/05/21 12:21:05;;;;;;;;;;;;;;;35.66;11.04;101843.47;6184952;23;19943;-59
2023/05/21 12:23:31;;;;;;;;;;;;;;;35.87;11.42;101846.44;6184649;23;19960;-58
2023/05/21 12:25:56;;;;;;;;;;;;;;;36.07;11.58;101841.25;6184653;23;19916;-59
2023/05/21 12:28:23;;;;;;;;;;;;;;;36.09;10.99;101841.72;6184481;23;19915;-57
2023/05/21 12:30:48;;;;;;;;;;;;;;;36.36;10.93;101834.91;6185708;23;19908;-59